Weather reports worldwide

Advertisment
La Spezia-La Castellana, Italy (16129): temperature & dewpoint: 14.06.2019 06:00:00 - 20.06.2019 06:00:00 (CEST)La Spezia-La Castellana, Italy (16129): wind speed: 14.06.2019 06:00:00 - 20.06.2019 06:00:00 (CEST)La Spezia-La Castellana, Italy (16129): wind direction: 14.06.2019 06:00:00 - 20.06.2019 06:00:00 (CEST)
Date & Time tt [°C] td [°C] ff [km/h] ff [kn] dd
20.06.2019 06:00:00 - - - - -
20.06.2019 05:00:00 19,1 12,6 0 0 N
20.06.2019 04:00:00 19,9 10,0 2 1 WSW
20.06.2019 03:00:00 20,2 9,7 0 0 N
20.06.2019 02:00:00 20,0 9,2 0 0 N
20.06.2019 01:00:00 20,6 8,5 0 0 N
20.06.2019 00:00:00 19,9 14,2 0 0 N
19.06.2019 23:00:00 21,5 11,5 2 1 WSW
19.06.2019 22:00:00 21,8 13,6 2 1 SW
19.06.2019 21:00:00 22,2 13,7 2 1 WSW
19.06.2019 20:00:00 22,7 10,8 4 2 WSW
19.06.2019 19:00:00 23,3 13,4 5 3 SW
19.06.2019 18:00:00 23,9 13,1 5 3 SW
19.06.2019 17:00:00 24,2 10,1 9 5 WSW
19.06.2019 16:00:00 - - - - -
19.06.2019 15:00:00 24,0 14,6 9 5 SW
19.06.2019 14:00:00 23,4 16,8 9 5 SW
19.06.2019 13:00:00 23,9 18,3 5 3 S
19.06.2019 12:00:00 24,2 16,1 2 1 ENE
19.06.2019 11:00:00 23,1 19,4 0 0 N
19.06.2019 10:00:00 22,4 19,5 0 0 N
19.06.2019 09:00:00 22,2 17,5 0 0 N
19.06.2019 08:00:00 21,8 18,1 0 0 N
19.06.2019 07:00:00 20,6 15,5 0 0 N
19.06.2019 06:00:00 21,2 15,4 0 0 N
19.06.2019 05:00:00 21,2 15,7 0 0 N
19.06.2019 04:00:00 21,0 15,7 4 2 NNW
19.06.2019 03:00:00 21,4 17,1 5 3 NW
19.06.2019 02:00:00 21,0 16,3 4 2 NNW
19.06.2019 01:00:00 20,6 16,8 4 2 NNW
19.06.2019 00:00:00 22,3 16,9 0 0 N
18.06.2019 23:00:00 22,9 14,6 2 1 WSW
18.06.2019 22:00:00 23,4 14,6 0 0 N
18.06.2019 21:00:00 23,6 13,9 5 3 W
18.06.2019 20:00:00 24,2 14,8 9 5 WSW
18.06.2019 19:00:00 24,8 16,7 5 3 WSW
18.06.2019 18:00:00 24,7 16,6 15 8 WSW
18.06.2019 17:00:00 24,8 17,0 16 9 WSW
18.06.2019 16:00:00 - - - - -
18.06.2019 15:00:00 25,0 17,6 11 6 WSW
18.06.2019 14:00:00 24,5 17,4 13 7 SW
18.06.2019 13:00:00 23,6 17,3 16 9 SW
18.06.2019 12:00:00 23,8 17,7 13 7 SW
18.06.2019 11:00:00 24,8 18,2 0 0 N
18.06.2019 10:00:00 24,0 18,1 2 1 E
18.06.2019 09:00:00 22,8 17,4 4 2 SW
18.06.2019 08:00:00 22,8 17,6 2 1 NNW
18.06.2019 07:00:00 21,9 17,6 8 4 N
18.06.2019 06:00:00 20,5 17,8 4 2 NNW
18.06.2019 05:00:00 20,7 17,3 4 2 NNW
18.06.2019 04:00:00 21,6 17,7 2 1 N
18.06.2019 03:00:00 21,7 18,0 11 6 N
18.06.2019 02:00:00 22,1 18,4 11 6 N
18.06.2019 01:00:00 22,5 18,8 13 7 N
18.06.2019 00:00:00 22,3 18,8 11 6 N
17.06.2019 23:00:00 23,1 18,8 8 4 N
17.06.2019 22:00:00 23,1 18,4 4 2 N
17.06.2019 21:00:00 23,2 18,2 2 1 NE
17.06.2019 20:00:00 24,7 17,6 0 0 N
17.06.2019 19:00:00 24,4 17,6 5 3 N
17.06.2019 18:00:00 26,6 17,6 9 5 NW
17.06.2019 17:00:00 26,1 17,1 18 10 W
17.06.2019 16:00:00 - - - - -
17.06.2019 15:00:00 26,7 19,8 8 4 W
17.06.2019 14:00:00 23,7 19,1 5 3 W
17.06.2019 13:00:00 25,8 21,0 0 0 N
17.06.2019 12:00:00 24,6 17,5 0 0 N
17.06.2019 11:00:00 22,7 19,8 0 0 N
17.06.2019 10:00:00 21,3 19,0 0 0 N
17.06.2019 09:00:00 21,7 18,2 0 0 N
17.06.2019 08:00:00 20,5 18,7 0 0 N
17.06.2019 07:00:00 19,2 17,5 4 2 NW
17.06.2019 06:00:00 16,8 15,1 9 5 NNW
17.06.2019 05:00:00 16,2 14,7 0 0 N
17.06.2019 04:00:00 16,6 15,1 9 5 W
17.06.2019 03:00:00 16,7 15,2 11 6 NNW
17.06.2019 02:00:00 17,0 15,3 8 4 N
17.06.2019 01:00:00 18,0 16,3 2 1 N
17.06.2019 00:00:00 18,1 16,4 4 2 NNW
16.06.2019 23:00:00 18,1 16,4 0 0 N
16.06.2019 22:00:00 18,8 16,2 4 2 W
16.06.2019 21:00:00 19,2 15,8 8 4 W
16.06.2019 20:00:00 19,9 18,1 0 0 N
16.06.2019 19:00:00 20,1 18,0 5 3 W
16.06.2019 18:00:00 19,3 17,6 8 4 W
16.06.2019 17:00:00 19,3 17,6 9 5 WSW
16.06.2019 16:00:00 19,4 17,7 11 6 WSW
16.06.2019 15:00:00 19,3 17,6 11 6 WSW
16.06.2019 14:00:00 19,0 17,3 13 7 SW
16.06.2019 13:00:00 17,8 16,1 16 9 SW
16.06.2019 12:00:00 17,9 16,2 13 7 SW
16.06.2019 11:00:00 17,5 16,0 9 5 WSW
16.06.2019 10:00:00 17,4 15,9 9 5 SSW
16.06.2019 09:00:00 17,2 15,5 0 0 N
16.06.2019 08:00:00 16,9 15,4 0 0 N
16.06.2019 07:00:00 15,8 14,3 5 3 N
16.06.2019 06:00:00 15,9 14,4 5 3 N
16.06.2019 05:00:00 16,0 14,5 0 0 N
16.06.2019 04:00:00 16,1 14,6 0 0 N
16.06.2019 03:00:00 16,3 14,8 5 3 W
16.06.2019 02:00:00 16,2 14,7 2 1 NW
16.06.2019 01:00:00 16,5 15,0 5 3 WNW
16.06.2019 00:00:00 16,6 15,1 4 2 WNW
15.06.2019 23:00:00 17,2 15,7 9 5 WSW
15.06.2019 22:00:00 17,3 15,6 0 0 N
15.06.2019 21:00:00 17,8 16,1 0 0 N
15.06.2019 20:00:00 18,8 17,1 0 0 N
15.06.2019 19:00:00 17,7 16,1 8 4 W
15.06.2019 18:00:00 18,3 16,7 13 7 SW
15.06.2019 17:00:00 19,3 17,6 5 3 SW
15.06.2019 16:00:00 19,8 18,1 4 2 WSW
15.06.2019 15:00:00 18,6 17,0 13 7 NW
15.06.2019 14:00:00 19,4 17,7 15 8 SSW
15.06.2019 13:00:00 21,4 19,6 2 1 S
15.06.2019 12:00:00 18,8 17,2 2 1 W
15.06.2019 11:00:00 17,9 16,3 5 3 SSW
15.06.2019 10:00:00 18,3 16,6 4 2 S
15.06.2019 09:00:00 18,5 16,9 9 5 S
15.06.2019 08:00:00 17,4 15,9 5 3 SW
15.06.2019 07:00:00 17,2 15,7 13 7 SSW
15.06.2019 06:00:00 17,6 16,1 9 5 WSW
15.06.2019 05:00:00 17,6 16,1 4 2 E
15.06.2019 04:00:00 17,8 16,2 8 4 W
15.06.2019 03:00:00 18,7 17,0 4 2 SSE
15.06.2019 02:00:00 19,7 18,0 0 0 N
15.06.2019 01:00:00 19,7 18,0 24 13 S
15.06.2019 00:00:00 19,9 18,1 28 15 S
14.06.2019 23:00:00 20,5 18,7 26 14 SSE
14.06.2019 22:00:00 21,4 18,9 31 17 SSE
14.06.2019 21:00:00 21,1 18,4 18 10 ENE
14.06.2019 20:00:00 22,4 17,2 35 19 S
14.06.2019 19:00:00 24,5 20,3 13 7 SSE
14.06.2019 18:00:00 24,5 20,6 9 5 NNE
14.06.2019 17:00:00 24,6 19,8 4 2 NE
14.06.2019 16:00:00 24,9 19,7 2 1 N
14.06.2019 15:00:00 25,2 19,0 35 19 S
14.06.2019 14:00:00 28,0 17,8 15 8 SE
14.06.2019 13:00:00 27,8 15,4 15 8 ESE
14.06.2019 12:00:00 27,3 14,6 9 5 ENE
14.06.2019 11:00:00 26,5 13,5 15 8 E
14.06.2019 10:00:00 25,3 11,1 5 3 NE
14.06.2019 09:00:00 24,2 9,3 4 2 NNE
14.06.2019 08:00:00 23,6 9,9 2 1 N
14.06.2019 07:00:00 23,0 9,4 2 1 NNE
14.06.2019 06:00:00 22,2 10,3 15 8 N

tt = temperature
td = dewpoint
ff = wind speed
dd = wind direction

Next stations